Time;durP1;ratioP1;P1;durP2;ratioP2;P2;SDS_P1;SDS_P2;PMS_P1;PMS_P2;Temp;Humidity;BMP_temperature;BMP_pressure;BME280_temperature;BME280_humidity;BME280_pressure;Samples;Min_cycle;Max_cycle;Signal;HPM_P1;HPM_P2
2024/02/11 00:02:06;;;;;;;21.30;11.90;;;;;;;-147.86;100.00;85830.72;104883;1269;59345;-53
2024/02/11 00:04:35;;;;;;;27.00;12.30;;;;;;;-147.86;100.00;86652.45;104882;1266;71087;-55
2024/02/11 00:07:03;;;;;;;20.30;12.30;;;;;;;-147.86;100.00;87391.61;108714;1265;63121;-54
2024/02/11 00:09:30;;;;;;;18.00;11.10;;;;;;;-147.86;100.00;88010.52;108711;1264;72628;-56
2024/02/11 00:11:58;;;;;;;15.80;10.80;;;;;;;-147.86;100.00;88470.71;108676;1263;207481;-52
2024/02/11 00:14:27;;;;;;;18.90;12.00;;;;;;;-147.86;100.00;88774.48;108841;1262;58782;-55
2024/02/11 00:16:59;;;;;;;18.60;10.70;;;;;;;-147.86;100.00;89085.42;108853;1261;72500;-56
2024/02/11 00:19:27;;;;;;;17.60;11.30;;;;;;;-147.86;100.00;89150.39;108886;1263;63447;-56
2024/02/11 00:21:55;;;;;;;17.90;11.30;;;;;;;-147.86;100.00;88989.96;108837;1262;72688;-57
2024/02/11 00:24:23;;;;;;;21.60;11.10;;;;;;;-147.86;100.00;88727.73;108863;1261;60871;-56
2024/02/11 00:26:51;;;;;;;21.40;11.80;;;;;;;-147.86;100.00;88569.31;108855;1261;58879;-56
2024/02/11 00:29:18;;;;;;;18.50;10.60;;;;;;;-147.86;100.00;88526.55;108860;1263;73073;-57
2024/02/11 00:31:47;;;;;;;15.40;9.60;;;;;;;-147.86;100.00;88367.73;108886;1261;64505;-56
2024/02/11 00:34:14;;;;;;;19.60;10.30;;;;;;;-147.86;100.00;88329.31;108847;1262;71379;-54
2024/02/11 00:36:42;;;;;;;15.80;9.80;;;;;;;-147.86;100.00;88162.58;108846;1263;60909;-56
2024/02/11 00:39:10;;;;;;;16.90;9.60;;;;;;;-147.86;100.00;88100.02;108881;1263;60058;-55
2024/02/11 00:41:40;;;;;;;14.50;9.10;;;;;;;-147.86;100.00;88004.18;108848;1262;71749;-55
2024/02/11 00:44:08;;;;;;;16.60;9.60;;;;;;;-147.86;100.00;87847.77;108858;1261;63119;-56
2024/02/11 00:46:36;;;;;;;14.60;9.10;;;;;;;-147.86;100.00;87892.50;108814;1263;72670;-57
2024/02/11 00:49:04;;;;;;;15.00;9.10;;;;;;;-147.86;100.00;87834.30;108822;1263;60847;-56
2024/02/11 00:54:38;;;;;;;16.10;8.90;;;;;;;-147.86;100.00;92686.68;102785;1290;599530;-54
2024/02/11 00:57:07;;;;;;;14.70;9.10;;;;;;;-147.86;100.00;87855.69;105158;1264;59611;-54
2024/02/11 00:59:36;;;;;;;13.20;9.00;;;;;;;-147.86;100.00;87850.92;105065;1266;59394;-53
2024/02/11 01:02:03;;;;;;;15.70;9.70;;;;;;;-147.86;100.00;87810.55;105107;1269;71118;-57
2024/02/11 01:04:31;;;;;;;14.70;9.10;;;;;;;-147.86;100.00;87803.02;105069;1269;63193;-57
2024/02/11 01:06:59;;;;;;;18.10;10.10;;;;;;;-147.86;100.00;87789.55;105045;1267;71418;-55
2024/02/11 01:09:27;;;;;;;17.90;10.10;;;;;;;-147.86;100.00;87786.79;105013;1266;240450;-55
2024/02/11 01:11:57;;;;;;;17.30;9.80;;;;;;;-147.86;100.00;87717.88;105213;1264;59233;-54
2024/02/11 01:14:25;;;;;;;15.70;9.20;;;;;;;-147.86;100.00;87700.86;105162;1266;69912;-54
2024/02/11 01:16:53;;;;;;;14.70;9.00;;;;;;;-147.86;100.00;87768.95;105206;1264;63209;-54
2024/02/11 01:19:21;;;;;;;19.40;11.40;;;;;;;-147.86;100.00;87937.27;105223;1265;71372;-54
2024/02/11 01:21:48;;;;;;;16.70;9.90;;;;;;;-147.86;100.00;88188.33;105148;1264;60039;-56
2024/02/11 01:24:16;;;;;;;37.30;9.80;;;;;;;-147.86;100.00;88243.77;105176;1264;59995;-54
2024/02/11 01:26:44;;;;;;;22.00;10.20;;;;;;;-147.86;100.00;88239.02;105256;1264;71825;-56
2024/02/11 01:29:11;;;;;;;19.50;10.70;;;;;;;-147.86;100.00;88344.36;105170;1264;63503;-54
2024/02/11 01:31:39;;;;;;;17.60;10.60;;;;;;;-147.86;100.00;88476.25;105209;1265;72719;-55
2024/02/11 01:34:08;;;;;;;18.40;10.90;;;;;;;-147.86;100.00;88547.54;105241;1262;59749;-55
2024/02/11 01:36:36;;;;;;;19.60;11.10;;;;;;;-147.86;100.00;88581.20;105209;1267;59637;-55
2024/02/11 01:39:04;;;;;;;16.30;10.10;;;;;;;-147.86;100.00;88705.58;105200;1264;72994;-52
2024/02/11 01:41:32;;;;;;;16.20;9.70;;;;;;;-147.86;100.00;88758.25;105922;1251;64697;-52
2024/02/11 01:44:00;;;;;;;14.20;9.40;;;;;;;-147.86;100.00;88730.91;105979;1251;71699;-56
2024/02/11 01:46:28;;;;;;;17.50;10.10;;;;;;;-147.86;100.00;88775.67;105996;1254;59752;-52
2024/02/11 01:49:02;;;;;;;13.80;9.00;;;;;;;-147.86;100.00;88810.13;105899;1256;59654;-54
2024/02/11 01:51:33;;;;;;;14.80;8.70;;;;;;;-147.86;100.00;88657.64;105956;1254;71860;-54
2024/02/11 01:54:02;;;;;;;17.50;8.90;;;;;;;-147.86;100.00;88653.29;105827;1252;62935;-53
2024/02/11 01:56:31;;;;;;;16.90;9.40;;;;;;;-147.86;100.00;88775.27;105969;1254;72647;-53
2024/02/11 01:58:59;;;;;;;17.00;9.60;;;;;;;-147.86;100.00;88789.54;105922;1254;59752;-54
2024/02/11 02:01:27;;;;;;;19.60;9.70;;;;;;;-147.86;100.00;88780.82;105943;1254;59800;-57
2024/02/11 02:03:56;;;;;;;18.40;9.80;;;;;;;-147.86;100.00;88813.70;105868;1252;71719;-56
2024/02/11 02:06:24;;;;;;;25.20;10.90;;;;;;;-147.86;100.00;88980.05;105912;1254;63359;-56
2024/02/11 02:08:52;;;;;;;17.50;10.80;;;;;;;-147.86;100.00;89088.59;105914;1254;71387;-55
2024/02/11 02:11:20;;;;;;;24.20;9.80;;;;;;;-147.86;100.00;89174.15;105919;1256;60095;-53
2024/02/11 02:13:48;;;;;;;18.10;10.60;;;;;;;-147.86;100.00;89200.70;105929;1254;59957;-54
2024/02/11 02:16:16;;;;;;;22.40;10.90;;;;;;;-147.86;100.00;89315.96;105828;1253;71825;-55
2024/02/11 02:18:51;;;;;;;17.60;9.50;;;;;;;-147.86;100.00;89408.27;105809;1254;62962;-55
2024/02/11 02:21:19;;;;;;;19.90;11.00;;;;;;;-147.86;100.00;89386.88;105839;1258;71372;-55
2024/02/11 02:23:47;;;;;;;17.30;10.30;;;;;;;-147.86;100.00;89567.52;105655;1258;60157;-53
2024/02/11 02:26:15;;;;;;;23.10;12.20;;;;;;;-147.86;100.00;89632.88;105857;1256;59662;-54
2024/02/11 02:28:43;;;;;;;28.10;12.30;;;;;;;-147.86;100.00;89833.34;105834;1254;71765;-54
2024/02/11 02:31:10;;;;;;;30.20;14.10;;;;;;;-147.86;100.00;90007.67;105815;1259;63212;-52
2024/02/11 02:33:38;;;;;;;31.50;14.00;;;;;;;-147.86;100.00;90128.13;105842;1259;70705;-54
2024/02/11 02:36:06;;;;;;;41.00;13.30;;;;;;;-147.86;100.00;90246.19;105845;1254;60431;-54
2024/02/11 02:38:34;;;;;;;30.90;14.40;;;;;;;-147.86;100.00;90311.17;105804;1254;59646;-55
2024/02/11 02:41:02;;;;;;;29.90;13.80;;;;;;;-147.86;100.00;90389.63;105845;1252;73031;-52
2024/02/11 02:43:32;;;;;;;26.30;13.50;;;;;;;-147.86;100.00;90421.33;105898;1256;62430;-55
2024/02/11 02:46:00;;;;;;;27.80;13.80;;;;;;;-147.86;100.00;90465.70;105881;1257;71417;-55
2024/02/11 02:48:28;;;;;;;25.20;13.20;;;;;;;-147.86;100.00;90567.14;105735;1255;60498;-53
2024/02/11 02:50:57;;;;;;;30.50;14.20;;;;;;;-147.86;100.00;90647.19;105734;1258;60333;-54
2024/02/11 02:53:26;;;;;;;27.10;14.00;;;;;;;-147.86;100.00;90697.52;105761;1254;71749;-56
2024/02/11 02:55:56;;;;;;;29.60;15.00;;;;;;;-147.86;100.00;90755.36;105749;1252;64448;-56
2024/02/11 02:58:24;;;;;;;24.50;13.30;;;;;;;-147.86;100.00;90793.02;105726;1258;71522;-56
2024/02/11 03:00:52;;;;;;;32.70;14.90;;;;;;;-147.86;100.00;90850.48;105691;1260;60453;-57
2024/02/11 03:03:20;;;;;;;32.50;14.80;;;;;;;-147.86;100.00;90914.27;105758;1255;59666;-53
2024/02/11 03:05:50;;;;;;;25.50;13.10;;;;;;;-147.86;100.00;91038.72;105695;1254;71782;-53
2024/02/11 03:08:18;;;;;;;24.70;12.80;;;;;;;-147.86;100.00;90971.73;105765;1254;63096;-54
2024/02/11 03:10:46;;;;;;;21.70;11.40;;;;;;;-147.86;100.00;90962.23;105743;1260;71408;-55
2024/02/11 03:55:16;;;;;;;22.60;11.40;;;;;;;-147.86;100.00;95056.94;102743;1292;600344;-54
2024/02/11 03:57:44;;;;;;;20.10;10.40;;;;;;;-147.86;100.00;91139.38;105079;1264;61672;-56
2024/02/11 04:00:25;;;;;;;38.30;11.60;;;;;;;-147.86;100.00;91397.39;105103;1268;59740;-53
2024/02/11 04:02:54;;;;;;;20.50;11.30;;;;;;;-147.86;100.00;91463.59;105139;1270;72260;-56
2024/02/11 04:05:26;;;;;;;25.30;11.20;;;;;;;-147.86;100.00;91699.02;105042;1269;64529;-55
2024/02/11 04:07:55;;;;;;;21.00;11.50;;;;;;;-147.86;100.00;91737.45;105008;1265;231692;-54
2024/02/11 04:10:28;;;;;;;28.30;12.20;;;;;;;-147.86;100.00;91862.31;105668;1259;59603;-51
2024/02/11 04:12:58;;;;;;;35.20;13.10;;;;;;;-147.86;100.00;91960.63;105695;1261;59256;-56
2024/02/11 04:15:27;;;;;;;25.90;12.60;;;;;;;-147.86;100.00;92108.48;105702;1257;70994;-57
2024/02/11 04:18:07;;;;;;;25.90;13.30;;;;;;;-147.86;100.00;92193.71;105681;1260;63074;-56
2024/02/11 04:20:36;;;;;;;24.70;12.90;;;;;;;-147.86;100.00;92144.95;105639;1257;71455;-55
2024/02/11 04:23:04;;;;;;;24.00;13.10;;;;;;;-147.86;100.00;92346.73;105654;1260;61386;-56
2024/02/11 04:25:34;;;;;;;25.00;12.50;;;;;;;-147.86;100.00;92465.66;105654;1259;59604;-53
2024/02/11 04:28:07;;;;;;;23.30;12.30;;;;;;;-147.86;100.00;92516.01;105688;1261;72969;-54
2024/02/11 04:30:38;;;;;;;27.10;12.30;;;;;;;-147.86;100.00;92481.52;105690;1254;63305;-53
2024/02/11 04:33:06;;;;;;;26.90;12.00;;;;;;;-147.86;100.00;92572.70;105634;1254;73143;-53
2024/02/11 04:35:35;;;;;;;21.60;12.70;;;;;;;-147.86;100.00;92591.33;105694;1264;60419;-56
2024/02/11 04:38:12;;;;;;;24.80;12.90;;;;;;;-147.86;100.00;92700.36;105687;1257;59612;-55
2024/02/11 04:40:41;;;;;;;23.10;12.10;;;;;;;-147.86;100.00;92647.23;105697;1259;72260;-56
2024/02/11 04:43:10;;;;;;;26.30;13.90;;;;;;;-147.86;100.00;92764.98;105681;1260;63163;-55
2024/02/11 04:45:37;;;;;;;25.80;13.30;;;;;;;-147.86;100.00;92899.39;105678;1255;71395;-54
2024/02/11 04:48:09;;;;;;;27.50;14.10;;;;;;;-147.86;100.00;92916.83;105673;1260;61653;-54
2024/02/11 04:50:37;;;;;;;27.20;13.20;;;;;;;-147.86;100.00;92907.33;105673;1260;59561;-53
2024/02/11 04:53:08;;;;;;;30.20;14.50;;;;;;;-147.86;100.00;92921.98;105614;1260;71792;-53
2024/02/11 04:55:40;;;;;;;26.40;13.60;;;;;;;-147.86;100.00;93508.09;105678;1263;63255;-56
2024/02/11 04:58:19;;;;;;;24.00;12.90;;;;;;;-147.86;100.00;94803.77;105609;1260;72676;-55
2024/02/11 05:00:50;;;;;;;33.60;15.20;;;;;;;-147.86;100.00;95328.19;105601;1260;60430;-56
2024/02/11 05:03:20;;;;;;;29.10;15.60;;;;;;;-147.86;100.00;95505.14;105615;1262;59727;-55
2024/02/11 05:05:52;;;;;;;31.90;14.90;;;;;;;-147.86;100.00;95500.77;105619;1257;71860;-57
2024/02/11 05:08:22;;;;;;;30.00;14.90;;;;;;;-147.86;100.00;95477.36;105586;1260;63814;-57
2024/02/11 05:10:52;;;;;;;27.90;15.10;;;;;;;-147.86;100.00;95497.59;105596;1258;71452;-58
2024/02/11 05:13:23;;;;;;;29.20;15.20;;;;;;;-147.86;100.00;95445.62;105554;1260;60390;-55
2024/02/11 05:15:57;;;;;;;25.60;14.20;;;;;;;-147.86;100.00;95386.11;105666;1271;59774;-55
2024/02/11 05:18:27;;;;;;;35.20;15.20;;;;;;;-147.86;100.00;95303.59;105625;1261;71060;-54
2024/02/11 05:21:02;;;;;;;28.10;15.30;;;;;;;-147.86;100.00;95219.49;105608;1258;63611;-55
2024/02/11 05:23:30;;;;;;;27.10;15.50;;;;;;;-147.86;100.00;95032.25;105637;1267;71407;-55
2024/02/11 05:25:59;;;;;;;28.80;15.60;;;;;;;-147.86;100.00;95145.69;105564;1263;59720;-58
2024/02/11 05:28:27;;;;;;;40.90;18.20;;;;;;;-147.86;100.00;95200.05;105641;1257;59944;-56
2024/02/11 05:30:55;;;;;;;27.50;15.50;;;;;;;-147.86;100.00;95371.03;105579;1263;73000;-57
2024/02/11 05:33:23;;;;;;;33.50;16.70;;;;;;;-147.86;100.00;95366.28;105617;1258;63200;-54
2024/02/11 05:35:52;;;;;;;34.70;17.00;;;;;;;-147.86;100.00;95397.62;105589;1260;71724;-54
2024/02/11 05:38:19;;;;;;;30.40;15.00;;;;;;;-147.86;100.00;95419.43;105639;1263;60542;-54
2024/02/11 05:40:56;;;;;;;36.30;16.70;;;;;;;-147.86;100.00;95411.50;105648;1257;59890;-56
2024/02/11 05:43:26;;;;;;;28.00;14.30;;;;;;;-147.86;100.00;95302.00;105600;1257;71943;-51
2024/02/11 05:45:54;;;;;;;31.50;15.90;;;;;;;-147.86;100.00;95338.10;105653;1258;63145;-54
2024/02/11 05:48:23;;;;;;;25.60;14.70;;;;;;;-147.86;100.00;95353.98;105569;1260;71633;-57
2024/02/11 05:50:51;;;;;;;24.40;13.90;;;;;;;-147.86;100.00;95330.17;105646;1263;61745;-55
2024/02/11 05:53:18;;;;;;;25.20;14.30;;;;;;;-147.86;100.00;95275.82;105594;1263;59586;-57
2024/02/11 05:55:49;;;;;;;22.20;12.90;;;;;;;-147.86;100.00;95282.16;105612;1257;71794;-57
2024/02/11 05:58:17;;;;;;;27.30;14.40;;;;;;;-147.86;100.00;95248.05;105570;1260;63709;-58
2024/02/11 06:00:45;;;;;;;26.20;14.70;;;;;;;-147.86;100.00;95282.96;105575;1257;71471;-55
2024/02/11 06:03:13;;;;;;;32.80;15.30;;;;;;;-147.86;100.00;95231.79;105586;1261;60761;-54
2024/02/11 06:05:40;;;;;;;29.00;14.90;;;;;;;-147.86;100.00;95232.98;105445;1260;59554;-56
2024/02/11 06:08:09;;;;;;;24.70;14.50;;;;;;;-147.86;100.00;95277.41;105253;1257;71842;-56
2024/02/11 06:10:39;;;;;;;34.40;15.60;;;;;;;-147.86;100.00;95336.91;105536;1261;63373;-57
2024/02/11 06:13:10;;;;;;;30.20;14.80;;;;;;;-147.86;100.00;95373.81;105610;1262;71394;-54
2024/02/11 06:15:40;;;;;;;30.00;17.10;;;;;;;-147.86;100.00;95396.42;105541;1263;60367;-56
2024/02/11 06:18:10;;;;;;;29.40;16.40;;;;;;;-147.86;100.00;95479.74;105606;1260;59570;-55
2024/02/11 06:20:39;;;;;;;26.00;15.90;;;;;;;-147.86;100.00;95488.08;105627;1258;71815;-53
2024/02/11 06:23:07;;;;;;;28.00;15.10;;;;;;;-147.86;100.00;95592.80;105602;1260;63225;-54
2024/02/11 06:25:36;;;;;;;21.60;12.70;;;;;;;-147.86;100.00;95555.12;105553;1259;71702;-54
2024/02/11 06:28:05;;;;;;;30.20;14.00;;;;;;;-147.86;100.00;95576.55;105591;1257;61627;-54
2024/02/11 06:30:33;;;;;;;24.70;13.40;;;;;;;-147.86;100.00;95594.00;105636;1260;59650;-57
2024/02/11 06:33:00;;;;;;;21.40;13.00;;;;;;;-147.86;100.00;95619.79;105566;1260;72020;-54
2024/02/11 06:35:29;;;;;;;30.70;15.00;;;;;;;-147.86;100.00;95611.06;105620;1262;62488;-57
2024/02/11 06:37:59;;;;;;;25.20;14.20;;;;;;;-147.86;100.00;95637.64;105586;1257;71362;-56
2024/02/11 06:40:28;;;;;;;26.40;13.60;;;;;;;-147.86;100.00;95649.15;105612;1258;60427;-54
2024/02/11 06:42:59;;;;;;;24.50;13.60;;;;;;;-147.86;100.00;95688.04;105600;1261;59614;-54
2024/02/11 06:45:28;;;;;;;22.60;13.70;;;;;;;-147.86;100.00;95688.42;105606;1257;71762;-53
2024/02/11 06:47:57;;;;;;;25.20;13.30;;;;;;;-147.86;100.00;95776.91;105575;1260;64283;-53
2024/02/11 06:50:26;;;;;;;28.00;14.10;;;;;;;-147.86;100.00;95886.82;105583;1260;71495;-53
2024/02/11 06:52:54;;;;;;;30.30;14.70;;;;;;;-147.86;100.00;95944.74;105589;1260;59698;-54
2024/02/11 06:55:22;;;;;;;29.10;14.70;;;;;;;-147.86;100.00;95963.00;105616;1261;59647;-54
2024/02/11 06:57:49;;;;;;;30.00;14.90;;;;;;;-147.86;100.00;96013.39;105583;1261;73043;-53
2024/02/11 07:00:20;;;;;;;22.70;13.40;;;;;;;-147.86;100.00;96086.39;105550;1257;63493;-52
2024/02/11 07:02:52;;;;;;;28.50;14.90;;;;;;;-147.86;100.00;96128.86;105651;1261;72016;-53
2024/02/11 07:05:22;;;;;;;29.10;14.80;;;;;;;-147.86;100.00;96120.92;105552;1260;60819;-54
2024/02/11 07:07:51;;;;;;;27.10;14.60;;;;;;;-147.86;100.00;96134.80;105612;1260;59930;-56
2024/02/11 07:10:23;;;;;;;24.80;13.90;;;;;;;-147.86;100.00;96104.65;105575;1258;72857;-54
2024/02/11 07:12:51;;;;;;;30.40;14.20;;;;;;;-147.86;100.00;96157.83;105572;1260;63606;-56
2024/02/11 07:15:19;;;;;;;24.30;13.20;;;;;;;-147.86;100.00;96150.67;105559;1257;71661;-55
2024/02/11 07:17:48;;;;;;;31.00;13.90;;;;;;;-147.86;100.00;96168.14;105613;1257;59623;-57
2024/02/11 07:20:16;;;;;;;27.90;14.00;;;;;;;-147.86;100.00;96211.40;105637;1257;59784;-51
2024/02/11 07:22:45;;;;;;;27.70;13.00;;;;;;;-147.86;100.00;96263.37;105592;1257;71767;-56
2024/02/11 07:25:16;;;;;;;30.30;13.30;;;;;;;-147.86;100.00;96252.66;105878;1254;64504;-54
2024/02/11 07:27:45;;;;;;;20.70;12.10;;;;;;;-147.86;100.00;96261.00;105833;1255;71379;-53
2024/02/11 07:30:13;;;;;;;23.20;12.40;;;;;;;-147.86;100.00;96401.48;105838;1257;59749;-55
2024/02/11 07:32:43;;;;;;;26.90;13.10;;;;;;;-147.86;100.00;96497.10;105881;1257;59678;-55
2024/02/11 07:35:12;;;;;;;25.10;12.90;;;;;;;-147.86;100.00;96505.44;105873;1254;71591;-54
2024/02/11 07:37:42;;;;;;;23.00;13.50;;;;;;;-147.86;100.00;96583.22;105816;1257;63117;-53
2024/02/11 07:40:14;;;;;;;24.40;13.30;;;;;;;-147.86;100.00;96626.08;105889;1254;71670;-53
2024/02/11 07:42:43;;;;;;;19.60;12.30;;;;;;;-147.86;100.00;96657.03;105833;1254;60444;-54
2024/02/11 07:55:43;;;;;;;25.20;13.60;;;;;;;-147.86;100.00;99852.28;102895;1288;600180;-55
2024/02/11 07:58:10;;;;;;;26.80;13.90;;;;;;;-147.86;100.00;97078.11;104781;1280;60394;-53
2024/02/11 08:00:38;;;;;;;23.80;13.40;;;;;;;-147.86;100.00;97190.05;104797;1274;60723;-55
2024/02/11 08:03:08;;;;;;;26.50;13.20;;;;;;;-147.86;100.00;97209.49;104801;1267;70961;-53
2024/02/11 08:05:35;;;;;;;26.30;14.20;;;;;;;-147.86;100.00;97311.50;104858;1271;63142;-54
2024/02/11 08:08:04;;;;;;;25.90;14.50;;;;;;;-147.86;100.00;97301.57;104846;1267;72633;-54
2024/02/11 08:10:32;;;;;;;28.60;15.20;;;;;;;-147.86;100.00;97321.42;104924;1278;243020;-56
2024/02/11 08:13:01;;;;;;;30.50;15.00;;;;;;;-147.86;100.00;97278.95;105115;1269;59982;-53
2024/02/11 08:15:29;;;;;;;29.50;15.00;;;;;;;-147.86;100.00;97312.29;105230;1266;71010;-55
2024/02/11 08:17:59;;;;;;;28.10;14.70;;;;;;;-147.86;100.00;97358.73;105166;1264;62987;-53
2024/02/11 08:20:29;;;;;;;30.10;13.40;;;;;;;-147.86;100.00;97282.91;105194;1266;71521;-54
2024/02/11 08:22:57;;;;;;;25.10;14.10;;;;;;;-147.86;100.00;97233.30;105108;1268;61583;-52
2024/02/11 08:25:25;;;;;;;26.30;14.10;;;;;;;-147.86;100.00;97353.58;105202;1267;59665;-53
2024/02/11 08:27:53;;;;;;;25.10;13.70;;;;;;;-147.86;100.00;97381.36;105870;1258;72081;-55
2024/02/11 08:30:22;;;;;;;28.20;15.10;;;;;;;-147.86;100.00;97443.67;105898;1254;64496;-54
2024/02/11 08:32:53;;;;;;;25.00;14.50;;;;;;;-147.86;100.00;97370.23;105923;1254;72354;-55
2024/02/11 08:35:21;;;;;;;27.10;13.50;;;;;;;-147.86;100.00;97457.96;105851;1257;60537;-54
2024/02/11 08:37:49;;;;;;;29.90;15.10;;;;;;;-147.86;100.00;97556.41;105980;1254;60062;-53
2024/02/11 08:40:18;;;;;;;28.80;15.50;;;;;;;-147.86;100.00;97716.77;105831;1254;72014;-53
2024/02/11 08:42:45;;;;;;;30.20;14.90;;;;;;;-147.86;100.00;97872.38;105824;1258;63618;-54
2024/02/11 08:45:14;;;;;;;26.80;14.10;;;;;;;-147.86;100.00;97906.52;105836;1257;71408;-55
2024/02/11 08:47:41;;;;;;;22.30;13.50;;;;;;;-147.86;100.00;97958.92;105895;1252;60500;-50
2024/02/11 08:50:14;;;;;;;27.80;14.90;;;;;;;-147.86;100.00;97956.14;105904;1256;59669;-55
2024/02/11 08:52:43;;;;;;;26.50;15.10;;;;;;;-147.86;100.00;98098.27;105905;1254;73009;-54
2024/02/11 08:55:11;;;;;;;28.20;15.40;;;;;;;-147.86;100.00;98230.07;105913;1257;63240;-54
2024/02/11 08:57:39;;;;;;;25.20;14.70;;;;;;;-147.86;100.00;98319.40;105848;1257;72148;-54
2024/02/11 09:00:13;;;;;;;24.70;13.80;;;;;;;-147.86;100.00;98360.30;105834;1253;61598;-53
2024/02/11 09:02:42;;;;;;;28.50;15.20;;;;;;;-147.86;100.00;98278.10;105708;1255;59704;-53
2024/02/11 09:05:10;;;;;;;25.30;13.50;;;;;;;-147.86;100.00;98345.99;105879;1257;71161;-55
2024/02/11 09:07:39;;;;;;;31.30;16.10;;;;;;;-147.86;100.00;98348.78;105696;1255;63168;-55
2024/02/11 09:10:13;;;;;;;23.60;13.60;;;;;;;-147.86;100.00;98340.84;105805;1255;71442;-56
2024/02/11 09:12:42;;;;;;;27.10;14.60;;;;;;;-147.86;100.00;98250.31;105856;1257;61745;-52
2024/02/11 09:15:10;;;;;;;26.60;14.40;;;;;;;-147.86;100.00;98292.79;105733;1254;60005;-57
2024/02/11 09:17:43;;;;;;;25.10;14.00;;;;;;;-147.86;100.00;98230.86;105850;1257;73033;-54
2024/02/11 09:20:13;;;;;;;25.00;14.80;;;;;;;-147.86;100.00;98224.11;105838;1257;63290;-53
2024/02/11 09:22:42;;;;;;;28.20;14.70;;;;;;;-147.86;100.00;98236.02;105863;1254;72635;-52
2024/02/11 09:25:11;;;;;;;27.10;14.20;;;;;;;-147.86;100.00;98268.98;105882;1254;62091;-55
2024/02/11 09:27:39;;;;;;;26.20;15.00;;;;;;;-147.86;100.00;98242.38;105830;1254;61694;-56
2024/02/11 09:30:08;;;;;;;28.10;15.40;;;;;;;-147.86;100.00;98287.23;105702;1255;71048;-52
2024/02/11 09:32:36;;;;;;;30.60;15.90;;;;;;;-147.86;100.00;98329.72;105831;1257;63208;-53
2024/02/11 09:35:04;;;;;;;32.30;16.50;;;;;;;-147.86;100.00;98410.71;105695;1254;74722;-53
2024/02/11 09:37:32;;;;;;;30.10;15.60;;;;;;;-147.86;100.00;98488.53;105857;1256;61633;-56
2024/02/11 09:40:01;;;;;;;27.80;15.70;;;;;;;-147.86;100.00;98519.48;105638;1260;59548;-54
2024/02/11 09:42:29;;;;;;;31.80;15.70;;;;;;;-147.86;100.00;98514.34;105847;1254;71778;-55
2024/02/11 09:44:57;;;;;;;31.50;16.60;;;;;;;-147.86;100.00;98563.58;105808;1257;64726;-52
2024/02/11 09:47:25;;;;;;;40.30;16.30;;;;;;;-147.86;100.00;98611.61;105696;1258;73162;-57
2024/02/11 09:49:53;;;;;;;28.80;15.30;;;;;;;-147.86;100.00;98667.59;105723;1254;60461;-56
2024/02/11 09:52:21;;;;;;;31.80;16.70;;;;;;;-147.86;100.00;98750.98;105697;1259;59632;-58
2024/02/11 09:54:50;;;;;;;30.80;16.40;;;;;;;-147.86;100.00;98706.11;105654;1259;70969;-56
2024/02/11 09:57:17;;;;;;;26.50;15.90;;;;;;;-147.86;100.00;98716.43;105698;1254;62728;-57
2024/02/11 09:59:46;;;;;;;30.10;15.70;;;;;;;-147.86;100.00;98801.02;105686;1254;71622;-54
2024/02/11 10:02:18;;;;;;;35.00;18.00;;;;;;;-147.86;100.00;98883.20;105811;1257;60422;-55
2024/02/11 10:04:46;;;;;;;30.60;16.50;;;;;;;-147.86;100.00;98813.32;105865;1252;60055;-55
2024/02/11 10:07:25;;;;;;;33.20;17.60;;;;;;;-147.86;100.00;98853.42;105831;1257;73053;-58
2024/02/11 10:10:02;;;;;;;29.20;16.90;;;;;;;-147.86;100.00;98698.17;105886;1255;63116;-56
2024/02/11 10:12:29;;;;;;;39.50;17.60;;;;;;;-147.86;100.00;98646.16;105901;1254;72285;-53
2024/02/11 10:14:58;;;;;;;35.80;17.40;;;;;;;-147.86;100.00;98694.60;105838;1254;60688;-54
2024/02/11 10:17:25;;;;;;;42.10;17.50;;;;;;;-147.86;100.00;98702.93;105722;1260;59561;-55
2024/02/11 10:19:54;;;;;;;34.20;18.20;;;;;;;-147.86;100.00;98693.41;105731;1254;72854;-55
2024/02/11 10:22:22;;;;;;;31.50;16.80;;;;;;;-147.86;100.00;98708.09;105683;1253;63232;-58
2024/02/11 10:24:57;;;;;;;35.40;16.60;;;;;;;-147.86;100.00;98584.61;105813;1254;71643;-54
2024/02/11 10:27:25;;;;;;;33.40;16.70;;;;;;;-147.86;100.00;98580.65;105789;1257;59697;-53
2024/02/11 10:29:52;;;;;;;31.80;18.50;;;;;;;-147.86;100.00;98600.49;105691;1254;59682;-56
2024/02/11 10:32:20;;;;;;;32.30;17.10;;;;;;;-147.86;100.00;98596.92;105694;1259;72794;-58
2024/02/11 10:34:49;;;;;;;31.80;16.80;;;;;;;-147.86;100.00;98574.69;105641;1258;65019;-53
2024/02/11 10:37:17;;;;;;;28.70;15.70;;;;;;;-147.86;100.00;98606.85;105649;1254;70397;-55
2024/02/11 10:39:44;;;;;;;31.30;16.50;;;;;;;-147.86;100.00;98606.05;105808;1254;61671;-56
2024/02/11 10:42:13;;;;;;;33.40;16.70;;;;;;;-147.86;100.00;98615.58;105686;1258;59957;-56
2024/02/11 10:44:43;;;;;;;32.50;17.30;;;;;;;-147.86;100.00;98573.48;105696;1254;71754;-53
2024/02/11 10:47:12;;;;;;;33.40;17.10;;;;;;;-147.86;100.00;98557.62;105720;1259;63188;-54
2024/02/11 10:49:40;;;;;;;31.70;17.50;;;;;;;-147.86;100.00;98548.88;105725;1254;71349;-55
2024/02/11 10:52:11;;;;;;;38.00;18.20;;;;;;;-147.86;100.00;98579.45;105869;1254;59698;-55
2024/02/11 10:54:43;;;;;;;36.20;18.40;;;;;;;-147.86;100.00;98558.80;105695;1254;59596;-57
2024/02/11 10:57:12;;;;;;;36.70;18.50;;;;;;;-147.86;100.00;98554.84;105831;1253;72005;-54
2024/02/11 10:59:50;;;;;;;37.30;18.50;;;;;;;-147.86;100.00;98596.13;105725;1254;63244;-56
2024/02/11 11:02:18;;;;;;;32.60;17.60;;;;;;;-147.86;100.00;98557.23;105850;1257;70887;-54
2024/02/11 11:04:46;;;;;;;32.10;17.80;;;;;;;-147.86;100.00;98747.40;105678;1256;60482;-56
2024/02/11 11:07:15;;;;;;;35.40;18.90;;;;;;;-147.86;100.00;98828.41;105830;1257;59711;-55
2024/02/11 11:09:45;;;;;;;35.50;18.90;;;;;;;-147.86;100.00;98855.80;105708;1254;71771;-55
2024/02/11 11:12:17;;;;;;;36.00;18.10;;;;;;;-147.86;100.00;98848.26;105688;1260;63443;-56
2024/02/11 11:14:45;;;;;;;37.10;19.10;;;;;;;-147.86;100.00;98912.98;105674;1254;73065;-56
2024/02/11 11:17:21;;;;;;;41.70;20.10;;;;;;;-147.86;100.00;99062.29;105734;1259;60461;-56
2024/02/11 11:19:52;;;;;;;42.40;20.90;;;;;;;-147.86;100.00;99031.30;105716;1254;59947;-56
2024/02/11 11:22:24;;;;;;;42.80;21.00;;;;;;;-147.86;100.00;99169.50;105838;1257;72987;-54
2024/02/11 11:24:55;;;;;;;44.00;21.30;;;;;;;-147.86;100.00;99206.03;105841;1254;64333;-55
2024/02/11 11:54:51;;;;;;;44.40;22.40;;;;;;;-147.86;100.00;101811.17;102944;1288;600955;-56
2024/02/11 11:57:19;;;;;;;42.90;21.80;;;;;;;-147.86;100.00;99618.65;105020;1262;61865;-52
2024/02/11 11:59:55;;;;;;;43.90;21.00;;;;;;;-147.86;100.00;99779.89;105131;1269;59334;-58
2024/02/11 12:02:26;;;;;;;39.70;21.80;;;;;;;-147.86;100.00;99759.23;105163;1263;71231;-53
2024/02/11 12:15:38;;;;;;;39.20;21.80;;;;;;;-147.86;100.00;97178.54;102722;1293;601405;-55
2024/02/11 12:18:09;;;;;;;43.10;23.10;;;;;;;-147.86;100.00;97987.92;105077;1264;61480;-57
2024/02/11 12:20:43;;;;;;;38.20;20.90;;;;;;;-147.86;100.00;98594.14;104970;1269;59677;-56
2024/02/11 12:23:17;;;;;;;41.50;21.60;;;;;;;-147.86;100.00;98683.08;104862;1263;71524;-58
2024/02/11 12:25:51;;;;;;;45.80;21.70;;;;;;;-147.86;100.00;98688.23;105078;1263;63141;-56
2024/02/11 12:28:30;;;;;;;40.60;20.20;;;;;;;-147.86;100.00;98713.65;104805;1267;333833;-57
2024/02/11 12:31:14;;;;;;;43.80;21.90;;;;;;;-147.86;100.00;98702.13;105208;1266;62974;-57